createdAt,value
2018-12-15T00:00:36.877Z,0.00
2018-12-15T00:01:36.856Z,0.00
2018-12-15T00:02:36.830Z,0.00
2018-12-15T00:03:36.809Z,0.00
2018-12-15T00:04:36.789Z,0.00
2018-12-15T00:05:36.753Z,0.00
2018-12-15T00:06:36.734Z,0.00
2018-12-15T00:07:36.723Z,0.00
2018-12-15T00:08:36.691Z,0.00
2018-12-15T00:09:36.663Z,0.00
2018-12-15T00:10:36.639Z,0.00
2018-12-15T00:11:36.625Z,0.00
2018-12-15T00:12:36.591Z,0.00
2018-12-15T00:13:36.569Z,0.00
2018-12-15T00:14:36.542Z,0.00
2018-12-15T00:15:36.518Z,0.00
2018-12-15T00:16:36.496Z,0.00
2018-12-15T00:17:36.472Z,0.00
2018-12-15T00:18:36.445Z,0.00
2018-12-15T00:19:36.426Z,0.00
2018-12-15T00:20:36.398Z,0.00
2018-12-15T00:21:36.381Z,0.00
2018-12-15T00:22:36.356Z,0.00
2018-12-15T00:23:36.333Z,0.00
2018-12-15T00:24:36.303Z,0.00
2018-12-15T00:25:36.277Z,0.00
2018-12-15T00:26:36.261Z,0.00
2018-12-15T00:27:36.243Z,0.00
2018-12-15T00:28:36.208Z,0.00
2018-12-15T00:29:36.183Z,0.00
2018-12-15T00:30:36.162Z,0.00
2018-12-15T00:31:36.137Z,0.00
2018-12-15T00:32:36.126Z,0.00
2018-12-15T00:33:36.089Z,0.00
2018-12-15T00:34:36.069Z,0.00
2018-12-15T00:35:36.041Z,0.00
2018-12-15T00:36:36.020Z,0.00
2018-12-15T00:37:35.993Z,0.00
2018-12-15T00:38:35.967Z,0.00
2018-12-15T00:39:35.945Z,0.00
2018-12-15T00:40:35.921Z,0.00
2018-12-15T00:41:35.897Z,0.00
2018-12-15T00:42:35.883Z,0.00
2018-12-15T00:43:35.851Z,0.00
2018-12-15T00:44:35.829Z,0.00
2018-12-15T00:45:35.807Z,0.00
2018-12-15T00:46:35.782Z,0.00
2018-12-15T00:47:35.753Z,0.00
2018-12-15T00:48:35.741Z,0.00
2018-12-15T00:49:35.707Z,0.00
2018-12-15T00:50:35.687Z,0.00
2018-12-15T00:51:35.659Z,0.00
2018-12-15T00:52:35.632Z,0.00
2018-12-15T00:53:35.609Z,0.00
2018-12-15T00:54:35.593Z,0.00
2018-12-15T00:55:35.564Z,0.00
2018-12-15T00:56:35.541Z,0.00
2018-12-15T00:57:35.518Z,0.00
2018-12-15T00:58:35.494Z,0.00
2018-12-15T00:59:35.469Z,0.00
2018-12-15T01:00:35.443Z,0.00
2018-12-15T01:01:35.421Z,0.00
2018-12-15T01:02:35.397Z,0.00
2018-12-15T01:03:35.372Z,0.00
2018-12-15T01:04:35.347Z,0.00
2018-12-15T01:05:35.326Z,0.00
2018-12-15T01:06:35.298Z,0.00
2018-12-15T01:07:35.345Z,0.00
2018-12-15T01:08:35.251Z,0.00
2018-12-15T01:09:35.227Z,0.00
2018-12-15T01:10:35.208Z,0.00
2018-12-15T01:11:35.181Z,0.00
2018-12-15T01:12:35.156Z,0.00
2018-12-15T01:13:35.132Z,0.00
2018-12-15T01:14:35.106Z,0.00
2018-12-15T01:15:35.086Z,0.00
2018-12-15T01:16:35.060Z,0.00
2018-12-15T01:17:35.038Z,0.00
2018-12-15T01:18:35.014Z,0.00
2018-12-15T01:19:34.990Z,0.00
2018-12-15T01:20:34.964Z,0.00
2018-12-15T01:21:34.941Z,0.00
2018-12-15T01:22:34.915Z,0.00
2018-12-15T01:23:34.893Z,0.00
2018-12-15T01:24:34.873Z,0.00
2018-12-15T01:25:34.848Z,0.00
2018-12-15T01:26:34.824Z,0.00
2018-12-15T01:27:34.815Z,0.00
2018-12-15T01:28:34.775Z,0.00
2018-12-15T01:29:34.750Z,0.00
2018-12-15T01:30:34.728Z,0.00
2018-12-15T01:31:34.712Z,0.00
2018-12-15T01:32:34.678Z,0.00
2018-12-15T01:33:34.653Z,0.00
2018-12-15T01:34:34.632Z,0.00
2018-12-15T01:35:34.609Z,0.00
2018-12-15T01:36:34.585Z,0.00
2018-12-15T01:37:34.563Z,0.00
2018-12-15T01:38:34.537Z,0.00
2018-12-15T01:39:34.511Z,0.00
2018-12-15T01:40:34.486Z,0.00
2018-12-15T01:41:34.467Z,0.00
2018-12-15T01:42:34.444Z,0.00
2018-12-15T01:43:34.414Z,0.00
2018-12-15T01:44:34.390Z,0.00
2018-12-15T01:45:34.368Z,0.00
2018-12-15T01:46:34.341Z,0.00
2018-12-15T01:47:34.319Z,0.00
2018-12-15T01:48:34.296Z,0.00
2018-12-15T01:49:34.274Z,0.00
2018-12-15T01:50:34.248Z,0.00
2018-12-15T01:51:34.227Z,0.00
2018-12-15T01:52:34.199Z,0.00
2018-12-15T01:53:34.176Z,0.00
2018-12-15T01:54:34.156Z,0.00
2018-12-15T01:55:34.130Z,0.00
2018-12-15T01:56:34.104Z,0.00
2018-12-15T01:57:34.084Z,0.00
2018-12-15T01:58:34.069Z,0.00
2018-12-15T01:59:34.033Z,0.00
2018-12-15T02:00:34.013Z,0.00
2018-12-15T02:01:33.988Z,0.00
2018-12-15T02:02:33.960Z,0.00
2018-12-15T02:03:33.940Z,0.00
2018-12-15T02:04:33.912Z,0.00
2018-12-15T02:05:33.896Z,0.00
2018-12-15T02:06:33.866Z,0.00
2018-12-15T02:07:33.841Z,0.00
2018-12-15T02:08:33.825Z,0.00
2018-12-15T02:09:33.797Z,0.00
2018-12-15T02:10:33.774Z,0.00
2018-12-15T02:11:33.803Z,0.00
2018-12-15T02:12:33.720Z,0.00
2018-12-15T02:13:33.698Z,0.00
2018-12-15T02:14:33.677Z,0.00
2018-12-15T02:15:33.655Z,0.00
2018-12-15T02:16:33.627Z,0.00
2018-12-15T02:17:33.901Z,0.00
2018-12-15T02:18:33.586Z,0.00
2018-12-15T02:19:33.559Z,0.00
2018-12-15T02:20:33.535Z,0.00
2018-12-15T02:21:33.511Z,0.00
2018-12-15T02:22:33.489Z,0.00
2018-12-15T02:23:33.463Z,0.00
2018-12-15T02:24:33.437Z,0.00
2018-12-15T02:25:33.413Z,0.00
2018-12-15T02:26:33.395Z,0.00
2018-12-15T02:27:33.369Z,0.00
2018-12-15T02:28:33.346Z,0.00
2018-12-15T02:29:33.321Z,0.00
2018-12-15T02:30:33.295Z,0.00
2018-12-15T02:31:33.274Z,0.00
2018-12-15T02:32:33.249Z,0.00
2018-12-15T02:33:33.220Z,0.00
2018-12-15T02:34:33.199Z,0.00
2018-12-15T02:35:33.186Z,0.00
2018-12-15T02:36:33.149Z,0.00
2018-12-15T02:37:33.128Z,0.00
2018-12-15T02:38:33.106Z,0.00
2018-12-15T02:39:33.081Z,0.00
2018-12-15T02:40:33.061Z,0.00
2018-12-15T02:41:33.037Z,0.00
2018-12-15T02:42:33.011Z,0.00
2018-12-15T02:43:32.991Z,0.00
2018-12-15T02:44:32.964Z,0.00
2018-12-15T02:45:32.942Z,0.00
2018-12-15T02:46:32.919Z,0.00
2018-12-15T02:47:32.896Z,0.00
2018-12-15T02:48:32.873Z,0.00
2018-12-15T02:49:32.908Z,0.00
2018-12-15T02:50:32.821Z,0.00
2018-12-15T02:51:32.799Z,0.00
2018-12-15T02:52:32.785Z,0.00
2018-12-15T02:53:32.751Z,0.00
2018-12-15T02:54:32.727Z,0.00
2018-12-15T02:55:32.701Z,0.00
2018-12-15T02:56:32.680Z,0.00
2018-12-15T02:57:32.657Z,0.00
2018-12-15T02:58:32.639Z,0.00
2018-12-15T02:59:32.605Z,0.00
2018-12-15T03:00:32.585Z,0.00
2018-12-15T03:01:32.563Z,0.00
2018-12-15T03:02:32.542Z,0.00
2018-12-15T03:03:32.521Z,0.00
2018-12-15T03:04:32.488Z,0.00
2018-12-15T03:05:32.463Z,0.00
2018-12-15T03:06:32.439Z,0.00
2018-12-15T03:07:32.421Z,0.00
2018-12-15T03:08:32.391Z,0.00
2018-12-15T03:09:32.372Z,0.00
2018-12-15T03:10:32.345Z,0.00
2018-12-15T03:11:32.325Z,0.00
2018-12-15T03:12:32.300Z,0.00
2018-12-15T03:13:32.272Z,0.00
2018-12-15T03:14:32.255Z,0.00
2018-12-15T03:15:32.228Z,0.00
2018-12-15T03:16:32.209Z,0.00
2018-12-15T03:17:32.196Z,0.00
2018-12-15T03:18:32.156Z,0.00
2018-12-15T03:19:32.137Z,0.00
2018-12-15T03:20:32.111Z,0.00
2018-12-15T03:21:32.085Z,0.00
2018-12-15T03:22:32.062Z,0.00
2018-12-15T03:23:32.038Z,0.00
2018-12-15T03:24:32.012Z,0.00
2018-12-15T03:25:31.986Z,0.00
2018-12-15T03:26:31.968Z,0.00
2018-12-15T03:27:31.946Z,0.00
2018-12-15T03:28:31.916Z,0.00
2018-12-15T03:29:31.892Z,0.00
2018-12-15T03:30:31.870Z,0.00
2018-12-15T03:31:34.418Z,0.00
2018-12-15T03:32:31.822Z,0.00
2018-12-15T03:33:31.800Z,0.00
2018-12-15T03:34:31.777Z,0.00
2018-12-15T03:35:31.750Z,0.00
2018-12-15T03:36:31.731Z,0.00
2018-12-15T03:37:31.702Z,0.00
2018-12-15T03:38:31.680Z,0.00
2018-12-15T03:39:31.654Z,0.00
2018-12-15T03:40:31.631Z,0.00
2018-12-15T03:41:31.612Z,0.00
2018-12-15T03:42:31.588Z,0.00
2018-12-15T03:43:31.560Z,0.00
2018-12-15T03:44:31.542Z,0.00
2018-12-15T03:45:31.516Z,0.00
2018-12-15T03:46:31.490Z,0.00
2018-12-15T03:47:31.466Z,0.00
2018-12-15T03:48:31.438Z,0.00
2018-12-15T03:49:31.421Z,0.00
2018-12-15T03:50:31.402Z,0.00
2018-12-15T03:51:31.376Z,0.00
2018-12-15T03:52:31.349Z,0.00
2018-12-15T03:53:31.323Z,0.00
2018-12-15T03:54:31.310Z,0.00
2018-12-15T03:55:31.286Z,0.00
2018-12-15T03:56:31.253Z,0.00
2018-12-15T03:57:31.231Z,0.00
2018-12-15T03:58:31.209Z,0.00
2018-12-15T03:59:31.182Z,0.00
2018-12-15T04:00:31.161Z,0.00
2018-12-15T04:01:31.139Z,0.00
2018-12-15T04:02:31.112Z,0.00
2018-12-15T04:03:31.090Z,0.00
2018-12-15T04:04:31.064Z,0.00
2018-12-15T04:05:31.040Z,0.00
2018-12-15T04:06:31.017Z,0.00
2018-12-15T04:07:30.994Z,0.00
2018-12-15T04:08:30.973Z,0.00
2018-12-15T04:09:30.944Z,0.00
2018-12-15T04:10:30.939Z,0.00
2018-12-15T04:11:30.904Z,0.00
2018-12-15T04:12:30.876Z,0.00
2018-12-15T04:13:30.850Z,0.00
2018-12-15T04:14:30.828Z,0.00
2018-12-15T04:15:30.800Z,0.00
2018-12-15T04:16:30.778Z,0.00
2018-12-15T04:17:30.758Z,0.00
2018-12-15T04:18:30.737Z,0.00
2018-12-15T04:19:30.713Z,0.00
2018-12-15T04:20:30.690Z,0.00
2018-12-15T04:21:30.665Z,0.00
2018-12-15T04:22:30.638Z,0.00
2018-12-15T04:23:30.614Z,0.00
2018-12-15T04:24:30.590Z,0.00
2018-12-15T04:25:30.569Z,0.00
2018-12-15T04:26:30.543Z,0.00
2018-12-15T04:27:30.520Z,0.00
2018-12-15T04:28:30.497Z,0.00
2018-12-15T04:29:30.472Z,0.00
2018-12-15T04:30:30.448Z,0.00
2018-12-15T04:31:30.426Z,0.00
2018-12-15T04:32:30.403Z,0.00
2018-12-15T04:33:30.381Z,0.00
2018-12-15T04:34:30.357Z,0.00
2018-12-15T04:35:30.332Z,0.00
2018-12-15T04:36:30.307Z,0.00
2018-12-15T04:37:30.284Z,0.00
2018-12-15T04:38:30.262Z,0.00
2018-12-15T04:39:30.236Z,0.00
2018-12-15T04:40:30.211Z,0.00
2018-12-15T04:41:30.190Z,0.00
2018-12-15T04:42:30.168Z,0.00
2018-12-15T04:43:30.141Z,0.00
2018-12-15T04:44:30.120Z,0.00
2018-12-15T04:45:30.097Z,0.00
2018-12-15T04:46:30.078Z,0.00
2018-12-15T04:47:30.053Z,0.00
2018-12-15T04:48:30.022Z,0.00
2018-12-15T04:49:30.003Z,0.00
2018-12-15T04:50:29.978Z,0.00
2018-12-15T04:51:29.952Z,0.00
2018-12-15T04:52:29.930Z,0.00
2018-12-15T04:53:29.906Z,0.00
2018-12-15T04:54:29.883Z,0.00
2018-12-15T04:55:29.862Z,0.00
2018-12-15T04:56:29.836Z,0.00
2018-12-15T04:57:29.814Z,0.00
2018-12-15T04:58:29.793Z,0.00
2018-12-15T04:59:29.769Z,0.00
2018-12-15T05:00:29.738Z,0.00
2018-12-15T05:01:29.720Z,0.00
2018-12-15T05:02:29.697Z,0.00
2018-12-15T05:03:29.673Z,0.00
2018-12-15T05:04:29.652Z,0.00
2018-12-15T05:05:29.621Z,0.00
2018-12-15T05:06:29.599Z,0.00
2018-12-15T05:07:29.576Z,0.00
2018-12-15T05:08:29.553Z,0.00
2018-12-15T05:09:29.528Z,0.00
2018-12-15T05:10:29.502Z,0.00
2018-12-15T05:11:29.482Z,0.00
2018-12-15T05:12:29.457Z,0.00
2018-12-15T05:13:29.433Z,0.00
2018-12-15T05:14:29.411Z,0.00
2018-12-15T05:15:29.387Z,0.00
2018-12-15T05:16:29.389Z,0.00
2018-12-15T05:17:29.341Z,0.00
2018-12-15T05:18:29.316Z,0.00
2018-12-15T05:19:29.295Z,0.00
2018-12-15T05:20:29.275Z,0.00
2018-12-15T05:21:29.247Z,0.00
2018-12-15T05:22:29.219Z,0.00
2018-12-15T05:23:29.197Z,0.00
2018-12-15T05:24:29.176Z,0.00
2018-12-15T05:25:29.153Z,0.00
2018-12-15T05:26:29.129Z,0.00
2018-12-15T05:27:29.107Z,0.00
2018-12-15T05:28:29.081Z,0.00
2018-12-15T05:29:29.054Z,0.00
2018-12-15T05:30:29.040Z,0.00
2018-12-15T05:31:29.009Z,0.00
2018-12-15T05:32:28.989Z,0.00
2018-12-15T05:33:28.965Z,0.00
2018-12-15T05:34:28.939Z,0.00
2018-12-15T05:35:28.917Z,0.00
2018-12-15T05:36:28.902Z,0.00
2018-12-15T05:37:28.872Z,0.00
2018-12-15T05:38:28.844Z,0.00
2018-12-15T05:39:28.827Z,0.00
2018-12-15T05:40:28.795Z,0.00
2018-12-15T05:41:28.778Z,0.00
2018-12-15T05:42:28.751Z,0.00
2018-12-15T05:43:28.729Z,0.00
2018-12-15T05:44:28.704Z,0.00
2018-12-15T05:45:28.677Z,0.00
2018-12-15T05:46:28.657Z,0.00
2018-12-15T05:47:28.633Z,0.00
2018-12-15T05:48:28.611Z,0.00
2018-12-15T05:49:28.585Z,0.00
2018-12-15T05:50:28.559Z,0.00
2018-12-15T05:51:28.541Z,0.00
2018-12-15T05:52:28.512Z,0.00
2018-12-15T05:53:28.490Z,0.00
2018-12-15T05:54:28.469Z,0.00
2018-12-15T05:55:28.444Z,0.00
2018-12-15T05:56:28.423Z,0.00
2018-12-15T05:57:28.397Z,0.00
2018-12-15T05:58:28.370Z,0.00
2018-12-15T05:59:28.351Z,0.00
2018-12-15T06:00:28.329Z,0.00
2018-12-15T06:01:28.301Z,0.00
2018-12-15T06:02:28.290Z,0.00
2018-12-15T06:03:28.261Z,0.00
2018-12-15T06:04:28.232Z,0.00
2018-12-15T06:05:28.208Z,0.00
2018-12-15T06:06:28.186Z,0.00
2018-12-15T06:07:28.162Z,0.00
2018-12-15T06:08:28.137Z,0.00
2018-12-15T06:09:28.111Z,0.00
2018-12-15T06:10:28.092Z,0.00
2018-12-15T06:11:28.066Z,0.00
2018-12-15T06:12:28.041Z,0.00
2018-12-15T06:13:28.020Z,0.00
2018-12-15T06:14:28.000Z,0.00
2018-12-15T06:15:27.972Z,0.00
2018-12-15T06:16:27.948Z,0.00
2018-12-15T06:17:27.922Z,0.00
2018-12-15T06:18:31.575Z,0.00
2018-12-15T06:19:27.880Z,0.00
2018-12-15T06:20:27.851Z,0.00
2018-12-15T06:21:27.834Z,0.00
2018-12-15T06:22:27.805Z,0.00
2018-12-15T06:23:27.783Z,0.00
2018-12-15T06:24:27.758Z,0.00
2018-12-15T06:25:27.745Z,0.00
2018-12-15T06:26:27.714Z,0.00
2018-12-15T06:27:27.687Z,0.00
2018-12-15T06:28:27.659Z,0.00
2018-12-15T06:29:27.640Z,0.00
2018-12-15T06:30:27.620Z,0.00
2018-12-15T06:31:27.598Z,0.00
2018-12-15T06:32:27.567Z,0.00
2018-12-15T06:33:27.545Z,0.00
2018-12-15T06:34:27.525Z,4.00
2018-12-15T06:35:27.505Z,4.00
2018-12-15T06:36:27.475Z,0.00
2018-12-15T06:37:27.453Z,0.00
2018-12-15T06:38:27.425Z,0.00
2018-12-15T06:39:27.406Z,4.00
2018-12-15T06:40:27.383Z,4.00
2018-12-15T06:41:27.357Z,0.00
2018-12-15T06:42:27.335Z,4.00
2018-12-15T06:43:27.311Z,4.00
2018-12-15T06:44:27.291Z,4.00
2018-12-15T06:45:27.261Z,4.00
2018-12-15T06:46:27.238Z,4.00
2018-12-15T06:47:27.219Z,8.00
2018-12-15T06:48:27.191Z,8.00
2018-12-15T06:49:27.173Z,12.00
2018-12-15T06:50:27.347Z,12.00
2018-12-15T06:51:27.119Z,12.00
2018-12-15T06:52:27.097Z,12.00
2018-12-15T06:53:27.075Z,12.00
2018-12-15T06:54:27.049Z,16.00
2018-12-15T06:55:27.032Z,20.00
2018-12-15T06:56:27.005Z,20.00
2018-12-15T06:57:26.980Z,24.00
2018-12-15T06:58:26.955Z,24.00
2018-12-15T06:59:26.932Z,28.00
2018-12-15T07:00:26.910Z,28.00
2018-12-15T07:01:26.896Z,32.00
2018-12-15T07:02:26.861Z,36.00
2018-12-15T07:03:26.841Z,40.00
2018-12-15T07:04:26.812Z,40.00
2018-12-15T07:05:26.792Z,44.00
2018-12-15T07:06:26.765Z,52.00
2018-12-15T07:07:26.742Z,52.00
2018-12-15T07:08:26.720Z,56.00
2018-12-15T07:09:26.694Z,60.00
2018-12-15T07:10:26.681Z,64.00
2018-12-15T07:11:26.648Z,68.00
2018-12-15T07:12:26.626Z,76.00
2018-12-15T07:13:26.599Z,76.00
2018-12-15T07:14:26.584Z,80.00
2018-12-15T07:15:26.558Z,84.00
2018-12-15T07:16:26.534Z,88.00
2018-12-15T07:17:26.508Z,92.00
2018-12-15T07:18:26.488Z,96.00
2018-12-15T07:19:26.461Z,100.00
2018-12-15T07:20:26.438Z,104.00
2018-12-15T07:21:26.413Z,108.00
2018-12-15T07:22:26.390Z,112.00
2018-12-15T07:23:26.370Z,116.00
2018-12-15T07:24:26.340Z,120.00
2018-12-15T07:25:26.319Z,128.00
2018-12-15T07:26:26.296Z,140.00
2018-12-15T07:27:26.275Z,148.00
2018-12-15T07:28:26.248Z,160.00
2018-12-15T07:29:26.219Z,172.00
2018-12-15T07:30:26.200Z,184.00
2018-12-15T07:31:26.183Z,192.00
2018-12-15T07:32:26.152Z,208.00
2018-12-15T07:33:26.134Z,220.00
2018-12-15T07:34:26.108Z,224.00
2018-12-15T07:35:26.082Z,228.00
2018-12-15T07:36:26.057Z,228.00
2018-12-15T07:37:26.039Z,228.00
2018-12-15T07:38:26.018Z,232.00
2018-12-15T07:39:25.988Z,232.00
2018-12-15T07:40:25.965Z,248.00
2018-12-15T07:41:25.956Z,268.00
2018-12-15T07:42:25.918Z,288.00
2018-12-15T07:43:25.898Z,304.00
2018-12-15T07:44:25.879Z,324.00
2018-12-15T07:45:25.853Z,352.00
2018-12-15T07:46:25.824Z,380.00
2018-12-15T07:47:25.810Z,396.00
2018-12-15T07:48:25.780Z,424.00
2018-12-15T07:49:25.752Z,456.00
2018-12-15T07:50:25.733Z,476.00
2018-12-15T07:51:25.706Z,492.00
2018-12-15T07:52:25.683Z,524.00
2018-12-15T07:53:25.659Z,564.00
2018-12-15T07:54:25.637Z,600.00
2018-12-15T07:55:25.610Z,624.00
2018-12-15T07:56:25.591Z,640.00
2018-12-15T07:57:25.568Z,640.00
2018-12-15T07:58:25.539Z,636.00
2018-12-15T07:59:25.516Z,624.00
2018-12-15T08:00:25.523Z,612.00
2018-12-15T08:01:25.467Z,608.00
2018-12-15T08:02:25.450Z,624.00
2018-12-15T08:03:25.424Z,632.00
2018-12-15T08:04:25.401Z,636.00
2018-12-15T08:05:25.375Z,652.00
2018-12-15T08:06:25.357Z,668.00
2018-12-15T08:07:25.330Z,672.00
2018-12-15T08:08:25.310Z,676.00
2018-12-15T08:09:25.289Z,696.00
2018-12-15T08:10:25.259Z,708.00
2018-12-15T08:11:25.246Z,704.00
2018-12-15T08:12:25.211Z,712.00
2018-12-15T08:13:25.191Z,732.00
2018-12-15T08:14:25.170Z,748.00
2018-12-15T08:15:25.143Z,760.00
2018-12-15T08:16:25.121Z,760.00
2018-12-15T08:17:25.094Z,768.00
2018-12-15T08:18:25.080Z,760.00
2018-12-15T08:19:25.062Z,760.00
2018-12-15T08:20:25.027Z,780.00
2018-12-15T08:21:25.004Z,804.00
2018-12-15T08:22:26.253Z,828.00
2018-12-15T08:23:24.956Z,844.00
2018-12-15T08:24:24.930Z,868.00
2018-12-15T08:25:24.903Z,872.00
2018-12-15T08:26:24.883Z,888.00
2018-12-15T08:27:24.863Z,920.00
2018-12-15T08:28:24.836Z,960.00
2018-12-15T08:29:24.814Z,1024.00
2018-12-15T08:30:24.791Z,1096.00
2018-12-15T08:31:24.769Z,1176.00
2018-12-15T08:32:24.744Z,1272.00
2018-12-15T08:33:24.722Z,1380.00
2018-12-15T08:34:24.694Z,1500.00
2018-12-15T08:35:24.671Z,1624.00
2018-12-15T08:36:24.649Z,1736.00
2018-12-15T08:37:24.626Z,1816.00
2018-12-15T08:38:24.609Z,1884.00
2018-12-15T08:39:24.577Z,1924.00
2018-12-15T08:40:24.554Z,1956.00
2018-12-15T08:41:24.536Z,1992.00
2018-12-15T08:42:24.507Z,2016.00
2018-12-15T08:43:24.489Z,2020.00
2018-12-15T08:44:24.461Z,1984.00
2018-12-15T08:45:24.437Z,1912.00
2018-12-15T08:46:24.416Z,1788.00
2018-12-15T08:47:24.399Z,1648.00
2018-12-15T08:48:24.368Z,1564.00
2018-12-15T08:49:24.347Z,1544.00
2018-12-15T08:50:24.324Z,1552.00
2018-12-15T08:51:24.299Z,1584.00
2018-12-15T08:52:24.274Z,1620.00
2018-12-15T08:53:24.251Z,1664.00
2018-12-15T08:54:24.227Z,1708.00
2018-12-15T08:55:24.201Z,1760.00
2018-12-15T08:56:24.179Z,1768.00
2018-12-15T08:57:24.156Z,1784.00
2018-12-15T08:58:24.143Z,1812.00
2018-12-15T08:59:24.113Z,1824.00
2018-12-15T09:00:24.087Z,1808.00
2018-12-15T09:01:24.066Z,1784.00
2018-12-15T09:02:24.042Z,1740.00
2018-12-15T09:03:24.017Z,1716.00
2018-12-15T09:04:23.996Z,1708.00
2018-12-15T09:05:23.972Z,1732.00
2018-12-15T09:06:23.946Z,1768.00
2018-12-15T09:07:23.926Z,1832.00
2018-12-15T09:08:23.906Z,1932.00
2018-12-15T09:09:23.877Z,1976.00
2018-12-15T09:10:23.850Z,1980.00
2018-12-15T09:11:23.832Z,1972.00
2018-12-15T09:12:23.810Z,1932.00
2018-12-15T09:13:23.788Z,1876.00
2018-12-15T09:14:23.762Z,1816.00
2018-12-15T09:15:23.738Z,1792.00
2018-12-15T09:16:26.679Z,1792.00
2018-12-15T09:17:23.692Z,1772.00
2018-12-15T09:18:23.664Z,1736.00
2018-12-15T09:19:23.646Z,1684.00
2018-12-15T09:20:23.623Z,1648.00
2018-12-15T09:21:23.600Z,1612.00
2018-12-15T09:22:23.573Z,1576.00
2018-12-15T09:23:23.553Z,1548.00
2018-12-15T09:24:23.528Z,1536.00
2018-12-15T09:25:23.514Z,1528.00
2018-12-15T09:26:23.479Z,1504.00
2018-12-15T09:27:23.460Z,1464.00
2018-12-15T09:28:23.442Z,1428.00
2018-12-15T09:29:23.419Z,1408.00
2018-12-15T09:30:23.388Z,1428.00
2018-12-15T09:31:23.362Z,1440.00
2018-12-15T09:32:23.341Z,1420.00
2018-12-15T09:33:23.320Z,1396.00
2018-12-15T09:34:23.296Z,1372.00
2018-12-15T09:35:23.273Z,1328.00
2018-12-15T09:36:23.249Z,1248.00
2018-12-15T09:37:23.227Z,1220.00
2018-12-15T09:38:23.199Z,1232.00
2018-12-15T09:39:23.179Z,1220.00
2018-12-15T09:40:23.156Z,1220.00
2018-12-15T09:41:23.135Z,1232.00
2018-12-15T09:42:23.110Z,1268.00
2018-12-15T09:43:23.087Z,1284.00
2018-12-15T09:44:23.065Z,1276.00
2018-12-15T09:45:23.038Z,1268.00
2018-12-15T09:46:23.019Z,1268.00
2018-12-15T09:47:23.005Z,1280.00
2018-12-15T09:48:22.965Z,1300.00
2018-12-15T09:49:22.951Z,1328.00
2018-12-15T09:50:22.927Z,1376.00
2018-12-15T09:51:22.901Z,1432.00
2018-12-15T09:52:22.873Z,1496.00
2018-12-15T09:53:22.853Z,1512.00
2018-12-15T09:54:22.828Z,1516.00
2018-12-15T09:55:22.808Z,1476.00
2018-12-15T09:56:22.785Z,1408.00
2018-12-15T09:57:22.762Z,1448.00
2018-12-15T09:58:22.738Z,1484.00
2018-12-15T09:59:22.715Z,1508.00
2018-12-15T10:00:22.693Z,1524.00
2018-12-15T10:01:22.680Z,1556.00
2018-12-15T10:02:22.650Z,1612.00
2018-12-15T10:03:22.631Z,1640.00
2018-12-15T10:04:22.604Z,1616.00
2018-12-15T10:05:22.581Z,1596.00
2018-12-15T10:06:22.549Z,1580.00
2018-12-15T10:07:22.527Z,1552.00
2018-12-15T10:08:22.508Z,1532.00
2018-12-15T10:09:22.478Z,1564.00
2018-12-15T10:10:22.457Z,1604.00
2018-12-15T10:11:22.442Z,1612.00
2018-12-15T10:12:22.417Z,1604.00
2018-12-15T10:13:22.388Z,1580.00
2018-12-15T10:14:22.360Z,1560.00
2018-12-15T10:15:22.343Z,1580.00
2018-12-15T10:16:22.317Z,1616.00
2018-12-15T10:17:22.296Z,1704.00
2018-12-15T10:18:22.275Z,1764.00
2018-12-15T10:19:24.410Z,1796.00
2018-12-15T10:20:22.226Z,1800.00
2018-12-15T10:21:22.202Z,1776.00
2018-12-15T10:22:22.181Z,1736.00
2018-12-15T10:23:22.157Z,1724.00
2018-12-15T10:24:22.129Z,1760.00
2018-12-15T10:25:22.106Z,1800.00
2018-12-15T10:26:22.082Z,1808.00
2018-12-15T10:27:22.064Z,1860.00
2018-12-15T10:28:22.040Z,1992.00
2018-12-15T10:29:22.015Z,2116.00
2018-12-15T10:30:21.998Z,2168.00
2018-12-15T10:31:21.971Z,2144.00
2018-12-15T10:32:21.947Z,2100.00
2018-12-15T10:33:21.923Z,2076.00
2018-12-15T10:34:21.899Z,2108.00
2018-12-15T10:35:21.880Z,2132.00
2018-12-15T10:36:21.856Z,2060.00
2018-12-15T10:37:21.832Z,2028.00
2018-12-15T10:38:21.808Z,2028.00
2018-12-15T10:39:21.781Z,2056.00
2018-12-15T10:40:21.768Z,2024.00
2018-12-15T10:41:21.738Z,1964.00
2018-12-15T10:42:21.713Z,1832.00
2018-12-15T10:43:21.700Z,1800.00
2018-12-15T10:44:21.670Z,1808.00
2018-12-15T10:45:21.646Z,1700.00
2018-12-15T10:46:21.624Z,1804.00
2018-12-15T10:47:21.600Z,1872.00
2018-12-15T10:48:21.574Z,1772.00
2018-12-15T10:49:21.554Z,1876.00
2018-12-15T10:50:21.530Z,1852.00
2018-12-15T10:51:21.514Z,1856.00
2018-12-15T10:52:21.480Z,1776.00
2018-12-15T10:53:21.474Z,1824.00
2018-12-15T10:54:21.436Z,2144.00
2018-12-15T10:55:21.414Z,2320.00
2018-12-15T10:56:21.391Z,2284.00
2018-12-15T10:57:21.365Z,2192.00
2018-12-15T10:58:21.345Z,2144.00
2018-12-15T10:59:21.320Z,2152.00
2018-12-15T11:00:21.296Z,2104.00
2018-12-15T11:01:21.277Z,2040.00
2018-12-15T11:02:21.253Z,1984.00
2018-12-15T11:03:21.229Z,1960.00
2018-12-15T11:04:21.207Z,2004.00
2018-12-15T11:05:21.180Z,2020.00
2018-12-15T11:06:21.166Z,1972.00
2018-12-15T11:07:21.133Z,1920.00
2018-12-15T11:08:21.113Z,1900.00
2018-12-15T11:09:21.090Z,1908.00
2018-12-15T11:10:21.067Z,1896.00
2018-12-15T11:11:21.144Z,1864.00
2018-12-15T11:12:21.016Z,1808.00
2018-12-15T11:13:20.996Z,1780.00
2018-12-15T11:14:20.974Z,1752.00
2018-12-15T11:15:20.944Z,1724.00
2018-12-15T11:16:20.925Z,1724.00
2018-12-15T11:17:20.904Z,1708.00
2018-12-15T11:18:20.884Z,1752.00
2018-12-15T11:19:20.858Z,1812.00
2018-12-15T11:20:20.833Z,1816.00
2018-12-15T11:21:20.810Z,1808.00
2018-12-15T11:22:20.838Z,1852.00
2018-12-15T11:23:20.766Z,1836.00
2018-12-15T11:24:20.744Z,1688.00
2018-12-15T11:25:20.721Z,1708.00
2018-12-15T11:26:20.693Z,1880.00
2018-12-15T11:27:20.674Z,1848.00
2018-12-15T11:28:20.655Z,1472.00
2018-12-15T11:29:20.624Z,1360.00
2018-12-15T11:30:20.606Z,1432.00
2018-12-15T11:31:20.576Z,1400.00
2018-12-15T11:32:20.557Z,1236.00
2018-12-15T11:33:20.534Z,1016.00
2018-12-15T11:34:20.511Z,1060.00
2018-12-15T11:35:20.489Z,1256.00
2018-12-15T11:36:20.462Z,1276.00
2018-12-15T11:37:20.445Z,1300.00
2018-12-15T11:38:20.418Z,1408.00
2018-12-15T11:39:20.398Z,1456.00
2018-12-15T11:40:20.372Z,1640.00
2018-12-15T11:41:20.348Z,1708.00
2018-12-15T11:42:20.328Z,1632.00
2018-12-15T11:43:20.299Z,1612.00
2018-12-15T11:44:20.282Z,1632.00
2018-12-15T11:45:20.254Z,1712.00
2018-12-15T11:46:20.242Z,1752.00
2018-12-15T11:47:20.220Z,1680.00
2018-12-15T11:48:20.183Z,1624.00
2018-12-15T11:49:20.164Z,1616.00
2018-12-15T11:50:20.140Z,1624.00
2018-12-15T11:51:20.116Z,1552.00
2018-12-15T11:52:20.102Z,1556.00
2018-12-15T11:53:20.076Z,1540.00
2018-12-15T11:54:20.046Z,1456.00
2018-12-15T11:55:20.024Z,1420.00
2018-12-15T11:56:20.005Z,1384.00
2018-12-15T11:57:19.976Z,1448.00
2018-12-15T11:58:19.963Z,1572.00
2018-12-15T11:59:19.929Z,1424.00
2018-12-15T12:00:19.905Z,1216.00
2018-12-15T12:01:19.883Z,1044.00
2018-12-15T12:02:19.860Z,1100.00
2018-12-15T12:03:19.838Z,1232.00
2018-12-15T12:04:19.817Z,1316.00
2018-12-15T12:05:19.794Z,1272.00
2018-12-15T12:06:19.770Z,1208.00
2018-12-15T12:07:19.746Z,1212.00
2018-12-15T12:08:19.720Z,1200.00
2018-12-15T12:09:19.699Z,1208.00
2018-12-15T12:10:19.678Z,1216.00
2018-12-15T12:11:19.652Z,1240.00
2018-12-15T12:12:19.628Z,1208.00
2018-12-15T12:13:19.608Z,1148.00
2018-12-15T12:14:19.580Z,1080.00
2018-12-15T12:15:19.562Z,1156.00
2018-12-15T12:16:19.534Z,1224.00
2018-12-15T12:17:19.516Z,1152.00
2018-12-15T12:18:19.490Z,1120.00
2018-12-15T12:19:19.468Z,1120.00
2018-12-15T12:20:19.443Z,1080.00
2018-12-15T12:21:19.418Z,964.00
2018-12-15T12:22:19.405Z,900.00
2018-12-15T12:23:19.370Z,984.00
2018-12-15T12:24:19.349Z,1184.00
2018-12-15T12:25:19.334Z,1296.00
2018-12-15T12:26:19.304Z,1224.00
2018-12-15T12:27:19.287Z,1104.00
2018-12-15T12:28:19.256Z,1080.00
2018-12-15T12:29:19.240Z,1136.00
2018-12-15T12:30:19.209Z,1268.00
2018-12-15T12:31:19.191Z,1332.00
2018-12-15T12:32:19.167Z,1296.00
2018-12-15T12:33:19.144Z,1252.00
2018-12-15T12:34:19.125Z,1196.00
2018-12-15T12:35:19.094Z,1076.00
2018-12-15T12:36:19.072Z,1096.00
2018-12-15T12:37:19.052Z,1408.00
2018-12-15T12:38:19.029Z,1632.00
2018-12-15T12:39:19.005Z,1712.00
2018-12-15T12:40:18.975Z,1736.00
2018-12-15T12:41:18.961Z,1756.00
2018-12-15T12:42:18.933Z,1744.00
2018-12-15T12:43:18.911Z,1628.00
2018-12-15T12:44:18.885Z,1596.00
2018-12-15T12:45:18.861Z,1672.00
2018-12-15T12:46:18.842Z,1732.00
2018-12-15T12:47:18.819Z,1804.00